sensor_id;sensor_type;location;lat;lon;timestamp;pressure;altitude;pressure_sealevel;temperature;humidity
38716;BME280;24833;49.324;8.694;2023-02-23T00:02:06;99462.09;;;10.48;72.78
38716;BME280;24833;49.324;8.694;2023-02-23T00:04:36;99471.94;;;10.47;71.96
38716;BME280;24833;49.324;8.694;2023-02-23T00:07:04;99473.19;;;10.45;72.12
38716;BME280;24833;49.324;8.694;2023-02-23T00:09:34;99467.03;;;10.44;72.50
38716;BME280;24833;49.324;8.694;2023-02-23T00:12:04;99464.53;;;10.43;72.77
38716;BME280;24833;49.324;8.694;2023-02-23T00:14:36;99467.41;;;10.41;73.90
38716;BME280;24833;49.324;8.694;2023-02-23T00:17:04;99464.75;;;10.41;72.72
38716;BME280;24833;49.324;8.694;2023-02-23T00:19:36;99464.75;;;10.41;73.73
38716;BME280;24833;49.324;8.694;2023-02-23T00:22:03;99462.06;;;10.41;73.67
38716;BME280;24833;49.324;8.694;2023-02-23T00:24:30;99462.06;;;10.41;72.67
38716;BME280;24833;49.324;8.694;2023-02-23T00:26:57;99455.09;;;10.40;73.39
38716;BME280;24833;49.324;8.694;2023-02-23T00:29:24;99457.16;;;10.38;74.81
38716;BME280;24833;49.324;8.694;2023-02-23T00:31:53;99460.63;;;10.39;73.66
38716;BME280;24833;49.324;8.694;2023-02-23T00:34:21;99455.31;;;10.39;72.96
38716;BME280;24833;49.324;8.694;2023-02-23T00:36:52;99453.47;;;10.39;72.83
38716;BME280;24833;49.324;8.694;2023-02-23T00:39:22;99456.94;;;10.40;73.16
38716;BME280;24833;49.324;8.694;2023-02-23T00:41:55;99457.97;;;10.39;72.78
38716;BME280;24833;49.324;8.694;2023-02-23T00:44:23;99456.34;;;10.38;73.20
38716;BME280;24833;49.324;8.694;2023-02-23T00:46:51;99457.97;;;10.39;73.08
38716;BME280;24833;49.324;8.694;2023-02-23T00:49:20;99451.81;;;10.38;72.31
38716;BME280;24833;49.324;8.694;2023-02-23T00:51:49;99463.31;;;10.39;72.48
38716;BME280;24833;49.324;8.694;2023-02-23T00:54:19;99462.50;;;10.38;72.87
38716;BME280;24833;49.324;8.694;2023-02-23T00:56:48;99462.50;;;10.38;72.25
38716;BME280;24833;49.324;8.694;2023-02-23T00:59:15;99462.50;;;10.38;72.12
38716;BME280;24833;49.324;8.694;2023-02-23T01:01:43;99463.31;;;10.39;72.44
38716;BME280;24833;49.324;8.694;2023-02-23T01:04:11;99457.16;;;10.38;72.22
38716;BME280;24833;49.324;8.694;2023-02-23T01:06:39;99463.53;;;10.37;72.56
38716;BME280;24833;49.324;8.694;2023-02-23T01:09:14;99460.84;;;10.37;72.33
38716;BME280;24833;49.324;8.694;2023-02-23T01:11:48;99467.59;;;10.33;73.05
38716;BME280;24833;49.324;8.694;2023-02-23T01:14:16;99459.38;;;10.34;72.26
38716;BME280;24833;49.324;8.694;2023-02-23T01:16:43;99456.72;;;10.34;73.03
38716;BME280;24833;49.324;8.694;2023-02-23T01:19:10;99458.78;;;10.32;72.57
38716;BME280;24833;49.324;8.694;2023-02-23T01:21:40;99463.28;;;10.32;72.15
38716;BME280;24833;49.324;8.694;2023-02-23T01:24:08;99464.13;;;10.32;72.34
38716;BME280;24833;49.324;8.694;2023-02-23T01:26:39;99455.28;;;10.32;73.47
38716;BME280;24833;49.324;8.694;2023-02-23T01:29:14;99459.38;;;10.28;71.55
38716;BME280;24833;49.324;8.694;2023-02-23T01:31:46;99461.00;;;10.29;73.00
38716;BME280;24833;49.324;8.694;2023-02-23T01:34:18;99466.34;;;10.29;73.92
38716;BME280;24833;49.324;8.694;2023-02-23T01:36:45;99460.41;;;10.27;74.87
38716;BME280;24833;49.324;8.694;2023-02-23T01:39:16;99459.59;;;10.26;73.15
38716;BME280;24833;49.324;8.694;2023-02-23T01:41:44;99459.78;;;10.25;74.02
38716;BME280;24833;49.324;8.694;2023-02-23T01:46:44;99453.81;;;10.23;73.25
38716;BME280;24833;49.324;8.694;2023-02-23T01:49:18;99457.47;;;10.22;74.42
38716;BME280;24833;49.324;8.694;2023-02-23T01:52:00;99462.00;;;10.21;73.66
38716;BME280;24833;49.324;8.694;2023-02-23T01:54:32;99451.31;;;10.21;75.28
38716;BME280;24833;49.324;8.694;2023-02-23T01:57:03;99449.88;;;10.19;75.28
38716;BME280;24833;49.324;8.694;2023-02-23T01:59:42;99450.91;;;10.18;74.12
38716;BME280;24833;49.324;8.694;2023-02-23T02:02:10;99444.75;;;10.17;74.65
38716;BME280;24833;49.324;8.694;2023-02-23T02:04:41;99443.94;;;10.17;76.10
38716;BME280;24833;49.324;8.694;2023-02-23T02:07:20;99440.63;;;10.15;75.87
38716;BME280;24833;49.324;8.694;2023-02-23T02:09:52;99438.16;;;10.13;73.63
38716;BME280;24833;49.324;8.694;2023-02-23T02:12:50;99437.34;;;10.13;73.87
38716;BME280;24833;49.324;8.694;2023-02-23T02:15:20;99442.47;;;10.14;73.99
38716;BME280;24833;49.324;8.694;2023-02-23T02:18:25;99441.03;;;10.12;73.06
38716;BME280;24833;49.324;8.694;2023-02-23T02:21:43;99435.72;;;10.12;72.85
38716;BME280;24833;49.324;8.694;2023-02-23T02:36:56;99425.84;;;10.12;72.53
38716;BME280;24833;49.324;8.694;2023-02-23T02:40:24;99430.38;;;10.12;72.80
38716;BME280;24833;49.324;8.694;2023-02-23T02:43:18;99427.50;;;10.13;74.48
38716;BME280;24833;49.324;8.694;2023-02-23T02:46:12;99425.84;;;10.12;74.29
38716;BME280;24833;49.324;8.694;2023-02-23T02:49:13;99425.03;;;10.12;73.35
38716;BME280;24833;49.324;8.694;2023-02-23T02:54:48;99413.72;;;10.09;73.79
38716;BME280;24833;49.324;8.694;2023-02-23T02:57:24;99412.72;;;10.10;75.35
38716;BME280;24833;49.324;8.694;2023-02-23T02:59:52;99421.53;;;10.11;74.25
38716;BME280;24833;49.324;8.694;2023-02-23T03:02:39;99418.06;;;10.10;74.09
38716;BME280;24833;49.324;8.694;2023-02-23T03:05:40;99418.06;;;10.10;74.51
38716;BME280;24833;49.324;8.694;2023-02-23T03:08:47;99412.72;;;10.10;76.03
38716;BME280;24833;49.324;8.694;2023-02-23T03:11:59;99414.56;;;10.10;77.10
38716;BME280;24833;49.324;8.694;2023-02-23T03:25:18;99418.84;;;10.04;77.09
38716;BME280;24833;49.324;8.694;2023-02-23T03:28:23;99417.22;;;10.03;75.58
38716;BME280;24833;49.324;8.694;2023-02-23T03:31:40;99418.84;;;10.04;73.98
38716;BME280;24833;49.324;8.694;2023-02-23T03:34:44;99418.03;;;10.04;74.61
38716;BME280;24833;49.324;8.694;2023-02-23T03:37:43;99413.53;;;10.04;76.04
38716;BME280;24833;49.324;8.694;2023-02-23T03:40:37;99417.00;;;10.05;75.01
38716;BME280;24833;49.324;8.694;2023-02-23T03:43:32;99424.19;;;10.04;74.52
38716;BME280;24833;49.324;8.694;2023-02-23T03:46:20;99420.50;;;10.05;75.32
38716;BME280;24833;49.324;8.694;2023-02-23T03:49:09;99425.00;;;10.05;74.94
38716;BME280;24833;49.324;8.694;2023-02-23T03:52:12;99418.84;;;10.04;74.54
38716;BME280;24833;49.324;8.694;2023-02-23T03:55:05;99422.56;;;10.03;74.96
38716;BME280;24833;49.324;8.694;2023-02-23T03:57:55;99425.84;;;10.05;75.69
38716;BME280;24833;49.324;8.694;2023-02-23T04:00:47;99423.38;;;10.04;75.54
38716;BME280;24833;49.324;8.694;2023-02-23T04:03:39;99425.22;;;10.03;74.62
38716;BME280;24833;49.324;8.694;2023-02-23T04:06:30;99423.56;;;10.02;74.73
38716;BME280;24833;49.324;8.694;2023-02-23T04:09:16;99422.56;;;10.03;75.15
38716;BME280;24833;49.324;8.694;2023-02-23T04:12:26;99423.75;;;10.01;73.55
38716;BME280;24833;49.324;8.694;2023-02-23T04:15:34;99419.25;;;10.01;74.61
38716;BME280;24833;49.324;8.694;2023-02-23T04:18:09;99431.56;;;10.02;74.73
38716;BME280;24833;49.324;8.694;2023-02-23T04:20:37;99427.03;;;10.03;75.39
38716;BME280;24833;49.324;8.694;2023-02-23T04:23:04;99426.22;;;10.02;75.26
38716;BME280;24833;49.324;8.694;2023-02-23T04:25:31;99421.69;;;10.03;76.03
38716;BME280;24833;49.324;8.694;2023-02-23T04:27:58;99428.06;;;10.02;74.99
38716;BME280;24833;49.324;8.694;2023-02-23T04:30:25;99422.94;;;10.00;75.62
38716;BME280;24833;49.324;8.694;2023-02-23T04:32:55;99424.56;;;10.01;75.54
38716;BME280;24833;49.324;8.694;2023-02-23T04:35:22;99422.13;;;10.00;75.34
38716;BME280;24833;49.324;8.694;2023-02-23T04:37:49;99426.63;;;9.99;75.23
38716;BME280;24833;49.324;8.694;2023-02-23T04:40:16;99421.28;;;9.99;75.77
38716;BME280;24833;49.324;8.694;2023-02-23T04:42:43;99426.63;;;9.99;75.08
38716;BME280;24833;49.324;8.694;2023-02-23T04:45:10;99427.66;;;9.98;76.00
38716;BME280;24833;49.324;8.694;2023-02-23T04:47:37;99425.00;;;9.98;75.40
38716;BME280;24833;49.324;8.694;2023-02-23T04:50:05;99425.00;;;9.98;75.57
38716;BME280;24833;49.324;8.694;2023-02-23T04:52:32;99430.31;;;9.98;75.85
38716;BME280;24833;49.324;8.694;2023-02-23T04:55:00;99421.50;;;9.98;75.40
38716;BME280;24833;49.324;8.694;2023-02-23T04:57:27;99427.88;;;9.97;75.20
38716;BME280;24833;49.324;8.694;2023-02-23T04:59:54;99426.03;;;9.97;75.81
38716;BME280;24833;49.324;8.694;2023-02-23T05:02:23;99423.53;;;9.96;75.83
38716;BME280;24833;49.324;8.694;2023-02-23T05:04:51;99438.72;;;9.95;75.25
38716;BME280;24833;49.324;8.694;2023-02-23T05:07:18;99429.69;;;9.96;75.71
38716;BME280;24833;49.324;8.694;2023-02-23T05:09:45;99433.19;;;9.97;75.83
38716;BME280;24833;49.324;8.694;2023-02-23T05:12:12;99432.75;;;9.93;75.63
38716;BME280;24833;49.324;8.694;2023-02-23T05:14:38;99432.75;;;9.93;75.61
38716;BME280;24833;49.324;8.694;2023-02-23T05:17:05;99427.44;;;9.93;75.72
38716;BME280;24833;49.324;8.694;2023-02-23T05:19:34;99436.47;;;9.92;75.44
38716;BME280;24833;49.324;8.694;2023-02-23T05:22:02;99440.16;;;9.91;75.07
38716;BME280;24833;49.324;8.694;2023-02-23T05:24:29;99440.16;;;9.91;75.33
38716;BME280;24833;49.324;8.694;2023-02-23T05:26:56;99435.63;;;9.92;75.38
38716;BME280;24833;49.324;8.694;2023-02-23T05:29:23;99434.00;;;9.91;75.01
38716;BME280;24833;49.324;8.694;2023-02-23T05:31:50;99428.84;;;9.89;75.20
38716;BME280;24833;49.324;8.694;2023-02-23T05:34:17;99432.34;;;9.90;75.66
38716;BME280;24833;49.324;8.694;2023-02-23T05:36:44;99428.84;;;9.89;75.47
38716;BME280;24833;49.324;8.694;2023-02-23T05:39:11;99435.19;;;9.88;75.36
38716;BME280;24833;49.324;8.694;2023-02-23T05:41:38;99432.53;;;9.88;75.59
38716;BME280;24833;49.324;8.694;2023-02-23T05:44:05;99435.19;;;9.88;75.50
38716;BME280;24833;49.324;8.694;2023-02-23T05:46:32;99436.22;;;9.87;75.61
38716;BME280;24833;49.324;8.694;2023-02-23T05:49:00;99431.91;;;9.86;75.33
38716;BME280;24833;49.324;8.694;2023-02-23T05:51:29;99431.09;;;9.86;75.54
38716;BME280;24833;49.324;8.694;2023-02-23T05:53:56;99438.28;;;9.85;74.93
38716;BME280;24833;49.324;8.694;2023-02-23T05:56:24;99442.78;;;9.85;75.36
38716;BME280;24833;49.324;8.694;2023-02-23T05:58:56;99433.97;;;9.84;75.05
38716;BME280;24833;49.324;8.694;2023-02-23T06:01:25;99437.66;;;9.83;75.33
38716;BME280;24833;49.324;8.694;2023-02-23T06:03:53;99428.81;;;9.82;75.34
38716;BME280;24833;49.324;8.694;2023-02-23T06:06:20;99431.47;;;9.82;75.15
38716;BME280;24833;49.324;8.694;2023-02-23T06:08:48;99430.66;;;9.82;75.01
38716;BME280;24833;49.324;8.694;2023-02-23T06:11:15;99440.50;;;9.81;75.56
38716;BME280;24833;49.324;8.694;2023-02-23T06:13:42;99439.69;;;9.81;75.49
38716;BME280;24833;49.324;8.694;2023-02-23T06:16:10;99432.72;;;9.80;75.08
38716;BME280;24833;49.324;8.694;2023-02-23T06:18:37;99438.03;;;9.80;75.34
38716;BME280;24833;49.324;8.694;2023-02-23T06:21:04;99441.75;;;9.79;75.63
38716;BME280;24833;49.324;8.694;2023-02-23T06:23:32;99447.06;;;9.79;75.59
38716;BME280;24833;49.324;8.694;2023-02-23T06:25:59;99450.75;;;9.78;75.05
38716;BME280;24833;49.324;8.694;2023-02-23T06:28:27;99438.47;;;9.77;75.70
38716;BME280;24833;49.324;8.694;2023-02-23T06:30:55;99451.59;;;9.78;75.70
38716;BME280;24833;49.324;8.694;2023-02-23T06:33:23;99448.09;;;9.78;77.06
38716;BME280;24833;49.324;8.694;2023-02-23T06:35:50;99445.44;;;9.78;75.93
38716;BME280;24833;49.324;8.694;2023-02-23T06:38:17;99458.75;;;9.78;76.32
38716;BME280;24833;49.324;8.694;2023-02-23T06:40:45;99458.97;;;9.76;76.44
38716;BME280;24833;49.324;8.694;2023-02-23T06:43:12;99463.44;;;9.76;76.27
38716;BME280;24833;49.324;8.694;2023-02-23T06:45:39;99467.78;;;9.77;75.66
38716;BME280;24833;49.324;8.694;2023-02-23T06:48:06;99459.97;;;9.75;75.63
38716;BME280;24833;49.324;8.694;2023-02-23T06:50:33;99471.44;;;9.76;75.95
38716;BME280;24833;49.324;8.694;2023-02-23T06:53:00;99467.97;;;9.75;75.40
38716;BME280;24833;49.324;8.694;2023-02-23T06:55:27;99474.13;;;9.76;75.98
38716;BME280;24833;49.324;8.694;2023-02-23T06:57:54;99473.28;;;9.75;76.11
38716;BME280;24833;49.324;8.694;2023-02-23T07:00:22;99474.13;;;9.76;75.65
38716;BME280;24833;49.324;8.694;2023-02-23T07:02:49;99482.13;;;9.76;75.36
38716;BME280;24833;49.324;8.694;2023-02-23T07:05:16;99482.97;;;9.76;76.94
38716;BME280;24833;49.324;8.694;2023-02-23T07:07:43;99485.63;;;9.76;76.20
38716;BME280;24833;49.324;8.694;2023-02-23T07:10:11;99482.13;;;9.76;77.09
38716;BME280;24833;49.324;8.694;2023-02-23T07:12:38;99482.13;;;9.76;76.58
38716;BME280;24833;49.324;8.694;2023-02-23T07:15:05;99481.13;;;9.77;76.23
38716;BME280;24833;49.324;8.694;2023-02-23T07:17:32;99490.75;;;9.78;75.88
38716;BME280;24833;49.324;8.694;2023-02-23T07:19:59;99481.13;;;9.77;76.18
38716;BME280;24833;49.324;8.694;2023-02-23T07:22:26;99482.56;;;9.79;76.94
38716;BME280;24833;49.324;8.694;2023-02-23T07:24:56;99486.88;;;9.80;75.84
38716;BME280;24833;49.324;8.694;2023-02-23T07:27:24;99487.69;;;9.81;76.26
38716;BME280;24833;49.324;8.694;2023-02-23T07:29:51;99491.38;;;9.80;75.89
38716;BME280;24833;49.324;8.694;2023-02-23T07:32:18;99484.81;;;9.82;75.87
38716;BME280;24833;49.324;8.694;2023-02-23T07:34:45;99496.34;;;9.83;76.77
38716;BME280;24833;49.324;8.694;2023-02-23T07:37:13;99495.91;;;9.86;76.54
38716;BME280;24833;49.324;8.694;2023-02-23T07:39:41;99493.25;;;9.86;76.77
38716;BME280;24833;49.324;8.694;2023-02-23T07:42:08;99495.91;;;9.86;76.58
38716;BME280;24833;49.324;8.694;2023-02-23T07:44:34;99502.91;;;9.87;76.36
38716;BME280;24833;49.324;8.694;2023-02-23T07:47:02;99498.38;;;9.88;76.35
38716;BME280;24833;49.324;8.694;2023-02-23T07:49:29;99502.69;;;9.89;76.08
38716;BME280;24833;49.324;8.694;2023-02-23T07:51:56;99506.19;;;9.89;76.28
38716;BME280;24833;49.324;8.694;2023-02-23T07:54:23;99511.34;;;9.91;76.59
38716;BME280;24833;49.324;8.694;2023-02-23T07:56:51;99506.00;;;9.91;76.14
38716;BME280;24833;49.324;8.694;2023-02-23T07:59:18;99511.13;;;9.92;76.26
38716;BME280;24833;49.324;8.694;2023-02-23T08:01:45;99507.66;;;9.92;76.29
38716;BME280;24833;49.324;8.694;2023-02-23T08:04:12;99505.81;;;9.92;76.88
38716;BME280;24833;49.324;8.694;2023-02-23T08:06:39;99507.44;;;9.93;76.63
38716;BME280;24833;49.324;8.694;2023-02-23T08:09:06;99509.91;;;9.95;76.31
38716;BME280;24833;49.324;8.694;2023-02-23T08:11:33;99511.53;;;9.96;76.49
38716;BME280;24833;49.324;8.694;2023-02-23T08:14:00;99509.69;;;9.96;76.76
38716;BME280;24833;49.324;8.694;2023-02-23T08:16:32;99512.19;;;9.98;76.70
38716;BME280;24833;49.324;8.694;2023-02-23T08:19:00;99515.47;;;10.00;76.57
38716;BME280;24833;49.324;8.694;2023-02-23T08:21:30;99515.28;;;10.01;77.00
38716;BME280;24833;49.324;8.694;2023-02-23T08:23:57;99518.59;;;10.03;76.79
38716;BME280;24833;49.324;8.694;2023-02-23T08:26:24;99516.53;;;10.05;77.23
38716;BME280;24833;49.324;8.694;2023-02-23T08:28:53;99524.13;;;10.08;76.71
38716;BME280;24833;49.324;8.694;2023-02-23T08:31:20;99519.44;;;10.10;76.83
38716;BME280;24833;49.324;8.694;2023-02-23T08:33:50;99522.72;;;10.13;76.48
38716;BME280;24833;49.324;8.694;2023-02-23T08:36:18;99522.94;;;10.18;76.68
38716;BME280;24833;49.324;8.694;2023-02-23T08:38:47;99525.22;;;10.21;77.08
38716;BME280;24833;49.324;8.694;2023-02-23T08:41:14;99526.50;;;10.25;76.61
38716;BME280;24833;49.324;8.694;2023-02-23T08:43:42;99529.41;;;10.30;77.08
38716;BME280;24833;49.324;8.694;2023-02-23T08:46:10;99535.16;;;10.33;76.81
38716;BME280;24833;49.324;8.694;2023-02-23T08:48:38;99538.25;;;10.37;77.33
38716;BME280;24833;49.324;8.694;2023-02-23T08:51:07;99533.13;;;10.42;77.18
38716;BME280;24833;49.324;8.694;2023-02-23T08:53:35;99532.53;;;10.47;77.37
38716;BME280;24833;49.324;8.694;2023-02-23T08:56:05;99530.91;;;10.52;77.50
38716;BME280;24833;49.324;8.694;2023-02-23T08:58:34;99522.47;;;10.55;76.57
38716;BME280;24833;49.324;8.694;2023-02-23T09:01:02;99530.72;;;10.60;77.20
38716;BME280;24833;49.324;8.694;2023-02-23T09:03:30;99527.44;;;10.65;77.25
38716;BME280;24833;49.324;8.694;2023-02-23T09:06:07;99529.50;;;10.70;76.90
38716;BME280;24833;49.324;8.694;2023-02-23T09:08:35;99525.00;;;10.77;77.69
38716;BME280;24833;49.324;8.694;2023-02-23T09:11:02;99524.16;;;10.83;78.11
38716;BME280;24833;49.324;8.694;2023-02-23T09:13:29;99532.41;;;10.88;77.60
38716;BME280;24833;49.324;8.694;2023-02-23T09:15:56;99528.53;;;10.90;77.48
38716;BME280;24833;49.324;8.694;2023-02-23T09:18:23;99532.41;;;10.95;77.81
38716;BME280;24833;49.324;8.694;2023-02-23T09:20:53;99529.75;;;11.01;78.51
38716;BME280;24833;49.324;8.694;2023-02-23T09:23:21;99535.31;;;11.06;78.20
38716;BME280;24833;49.324;8.694;2023-02-23T09:25:49;99529.97;;;11.13;77.92
38716;BME280;24833;49.324;8.694;2023-02-23T09:28:18;99533.69;;;11.18;77.92
38716;BME280;24833;49.324;8.694;2023-02-23T09:30:46;99519.69;;;11.23;77.70
38716;BME280;24833;49.324;8.694;2023-02-23T09:33:14;99532.44;;;11.28;78.37
38716;BME280;24833;49.324;8.694;2023-02-23T09:35:41;99521.94;;;11.33;78.11
38716;BME280;24833;49.324;8.694;2023-02-23T09:38:08;99525.44;;;11.40;78.02
38716;BME280;24833;49.324;8.694;2023-02-23T09:40:50;99527.06;;;11.48;77.96
38716;BME280;24833;49.324;8.694;2023-02-23T09:44:02;99534.25;;;11.60;78.40
38716;BME280;24833;49.324;8.694;2023-02-23T09:47:16;99528.88;;;11.73;78.70
38716;BME280;24833;49.324;8.694;2023-02-23T09:49:46;99530.53;;;11.88;79.54
38716;BME280;24833;49.324;8.694;2023-02-23T09:52:20;99527.22;;;11.99;79.08
38716;BME280;24833;49.324;8.694;2023-02-23T09:54:48;99528.81;;;12.13;79.58
38716;BME280;24833;49.324;8.694;2023-02-23T09:57:27;99534.09;;;12.26;79.14
38716;BME280;24833;49.324;8.694;2023-02-23T09:59:57;99533.88;;;12.35;79.50
38716;BME280;24833;49.324;8.694;2023-02-23T10:02:37;99536.28;;;12.43;79.06
38716;BME280;24833;49.324;8.694;2023-02-23T10:05:13;99540.78;;;12.49;78.77
38716;BME280;24833;49.324;8.694;2023-02-23T10:07:55;99543.66;;;12.54;78.76
38716;BME280;24833;49.324;8.694;2023-02-23T10:10:43;99539.94;;;12.55;78.07
38716;BME280;24833;49.324;8.694;2023-02-23T10:13:31;99540.53;;;12.57;78.50
38716;BME280;24833;49.324;8.694;2023-02-23T10:16:10;99541.16;;;12.59;78.32
38716;BME280;24833;49.324;8.694;2023-02-23T10:19:00;99543.81;;;12.66;78.48
38716;BME280;24833;49.324;8.694;2023-02-23T10:24:25;99544.72;;;12.85;78.89
38716;BME280;24833;49.324;8.694;2023-02-23T10:27:39;99543.81;;;12.97;79.34
38716;BME280;24833;49.324;8.694;2023-02-23T10:30:25;99537.53;;;13.10;79.87
38716;BME280;24833;49.324;8.694;2023-02-23T10:35:54;99543.00;;;13.28;79.34
38716;BME280;24833;49.324;8.694;2023-02-23T10:38:38;99545.03;;;13.33;79.25
38716;BME280;24833;49.324;8.694;2023-02-23T10:41:05;99547.88;;;13.38;78.93
38716;BME280;24833;49.324;8.694;2023-02-23T10:43:33;99550.50;;;13.45;79.35
38716;BME280;24833;49.324;8.694;2023-02-23T10:46:00;99547.97;;;13.50;79.33
38716;BME280;24833;49.324;8.694;2023-02-23T10:48:35;99552.91;;;13.53;79.15
38716;BME280;24833;49.324;8.694;2023-02-23T10:51:08;99547.09;;;13.56;79.41
38716;BME280;24833;49.324;8.694;2023-02-23T10:53:40;99543.53;;;13.62;79.53
38716;BME280;24833;49.324;8.694;2023-02-23T10:56:10;99538.31;;;13.67;79.24
38716;BME280;24833;49.324;8.694;2023-02-23T10:58:49;99541.53;;;13.76;79.45
38716;BME280;24833;49.324;8.694;2023-02-23T11:01:41;99539.41;;;13.84;79.69
38716;BME280;24833;49.324;8.694;2023-02-23T11:04:30;99549.22;;;13.90;79.54
38716;BME280;24833;49.324;8.694;2023-02-23T11:07:26;99544.81;;;13.96;79.61
38716;BME280;24833;49.324;8.694;2023-02-23T11:10:25;99542.06;;;14.03;79.84
38716;BME280;24833;49.324;8.694;2023-02-23T11:12:53;99542.44;;;14.06;79.42
38716;BME280;24833;49.324;8.694;2023-02-23T11:18:03;99539.91;;;14.11;79.33
38716;BME280;24833;49.324;8.694;2023-02-23T11:20:39;99539.69;;;14.13;79.53
38716;BME280;24833;49.324;8.694;2023-02-23T11:23:25;99546.69;;;14.14;79.58
38716;BME280;24833;49.324;8.694;2023-02-23T11:26:01;99545.28;;;14.11;78.94
38716;BME280;24833;49.324;8.694;2023-02-23T11:28:35;99534.97;;;14.08;78.86
38716;BME280;24833;49.324;8.694;2023-02-23T11:31:29;99535.66;;;14.04;78.42
38716;BME280;24833;49.324;8.694;2023-02-23T11:33:58;99533.88;;;13.98;78.45
38716;BME280;24833;49.324;8.694;2023-02-23T11:36:32;99538.88;;;13.94;78.43
38716;BME280;24833;49.324;8.694;2023-02-23T11:39:20;99533.72;;;13.93;78.88
38716;BME280;24833;49.324;8.694;2023-02-23T11:42:18;99530.41;;;13.90;78.54
38716;BME280;24833;49.324;8.694;2023-02-23T11:45:16;99518.66;;;13.92;78.75
38716;BME280;24833;49.324;8.694;2023-02-23T11:47:49;99524.63;;;13.94;78.77
38716;BME280;24833;49.324;8.694;2023-02-23T11:50:28;99521.88;;;14.00;79.44
38716;BME280;24833;49.324;8.694;2023-02-23T11:53:04;99513.56;;;14.02;79.07
38716;BME280;24833;49.324;8.694;2023-02-23T11:55:33;99513.72;;;14.07;78.78
38716;BME280;24833;49.324;8.694;2023-02-23T12:01:09;99508.28;;;14.13;79.02
38716;BME280;24833;49.324;8.694;2023-02-23T12:04:02;99511.31;;;14.17;79.26
38716;BME280;24833;49.324;8.694;2023-02-23T12:06:40;99500.50;;;14.24;79.66
38716;BME280;24833;49.324;8.694;2023-02-23T12:09:24;99504.06;;;14.36;79.86
38716;BME280;24833;49.324;8.694;2023-02-23T12:12:07;99504.16;;;14.48;80.42
38716;BME280;24833;49.324;8.694;2023-02-23T12:17:27;99492.69;;;14.82;81.42
38716;BME280;24833;49.324;8.694;2023-02-23T12:20:14;99505.25;;;15.00;81.39
38716;BME280;24833;49.324;8.694;2023-02-23T12:22:56;99498.84;;;15.13;81.20
38716;BME280;24833;49.324;8.694;2023-02-23T12:25:37;99493.69;;;15.23;80.87
38716;BME280;24833;49.324;8.694;2023-02-23T12:29:04;99487.97;;;15.31;81.25
38716;BME280;24833;49.324;8.694;2023-02-23T12:31:59;99488.56;;;15.33;80.83
38716;BME280;24833;49.324;8.694;2023-02-23T12:34:48;99492.91;;;15.34;79.72
38716;BME280;24833;49.324;8.694;2023-02-23T12:37:46;99482.25;;;15.39;80.53
38716;BME280;24833;49.324;8.694;2023-02-23T12:40:22;99482.94;;;15.46;81.07
38716;BME280;24833;49.324;8.694;2023-02-23T12:43:18;99473.69;;;15.54;81.45
38716;BME280;24833;49.324;8.694;2023-02-23T12:46:11;99478.50;;;15.64;81.55
38716;BME280;24833;49.324;8.694;2023-02-23T12:49:12;99476.88;;;15.74;82.28
38716;BME280;24833;49.324;8.694;2023-02-23T12:51:53;99475.69;;;15.82;81.18
38716;BME280;24833;49.324;8.694;2023-02-23T12:54:21;99470.41;;;15.87;80.58
38716;BME280;24833;49.324;8.694;2023-02-23T12:57:34;99465.34;;;15.91;80.76
38716;BME280;24833;49.324;8.694;2023-02-23T13:00:14;99471.19;;;15.99;81.49
38716;BME280;24833;49.324;8.694;2023-02-23T13:06:10;99468.94;;;16.08;81.58
38716;BME280;24833;49.324;8.694;2023-02-23T13:08:58;99468.44;;;16.11;81.43
38716;BME280;24833;49.324;8.694;2023-02-23T13:11:41;99464.47;;;16.14;80.99
38716;BME280;24833;49.324;8.694;2023-02-23T13:14:44;99460.84;;;16.20;81.52
38716;BME280;24833;49.324;8.694;2023-02-23T13:17:50;99464.66;;;16.24;81.41
38716;BME280;24833;49.324;8.694;2023-02-23T13:20:42;99466.28;;;16.25;80.99
38716;BME280;24833;49.324;8.694;2023-02-23T13:29:07;99471.13;;;16.23;80.73
38716;BME280;24833;49.324;8.694;2023-02-23T13:31:39;99469.97;;;16.19;80.10
38716;BME280;24833;49.324;8.694;2023-02-23T13:34:26;99474.78;;;16.17;79.42
38716;BME280;24833;49.324;8.694;2023-02-23T13:36:54;99468.69;;;16.10;79.17
38716;BME280;24833;49.324;8.694;2023-02-23T13:39:47;99466.97;;;16.03;79.71
38716;BME280;24833;49.324;8.694;2023-02-23T13:42:51;99460.06;;;15.96;79.62
38716;BME280;24833;49.324;8.694;2023-02-23T13:45:46;99458.81;;;15.87;79.18
38716;BME280;24833;49.324;8.694;2023-02-23T13:48:31;99454.03;;;15.77;79.12
38716;BME280;24833;49.324;8.694;2023-02-23T13:51:40;99454.41;;;15.69;79.40
38716;BME280;24833;49.324;8.694;2023-02-23T13:56:48;99453.34;;;15.58;78.34
38716;BME280;24833;49.324;8.694;2023-02-23T13:59:40;99455.69;;;15.54;78.86
38716;BME280;24833;49.324;8.694;2023-02-23T14:02:39;99454.50;;;15.50;79.31
38716;BME280;24833;49.324;8.694;2023-02-23T14:05:27;99456.03;;;15.46;78.82
38716;BME280;24833;49.324;8.694;2023-02-23T14:08:02;99456.72;;;15.42;78.39
38716;BME280;24833;49.324;8.694;2023-02-23T14:10:42;99453.72;;;15.38;78.66
38716;BME280;24833;49.324;8.694;2023-02-23T14:15:44;99459.66;;;15.29;77.37
38716;BME280;24833;49.324;8.694;2023-02-23T14:32:45;99453.47;;;15.05;77.62
38716;BME280;24833;49.324;8.694;2023-02-23T14:38:15;99450.16;;;15.03;77.33
38716;BME280;24833;49.324;8.694;2023-02-23T14:40:45;99456.03;;;14.99;77.19
38716;BME280;24833;49.324;8.694;2023-02-23T14:46:22;99454.59;;;14.97;77.04
38716;BME280;24833;49.324;8.694;2023-02-23T14:49:07;99454.25;;;14.93;77.01
38716;BME280;24833;49.324;8.694;2023-02-23T14:51:50;99456.38;;;14.91;76.98
38716;BME280;24833;49.324;8.694;2023-02-23T14:54:38;99456.81;;;14.88;77.03
38716;BME280;24833;49.324;8.694;2023-02-23T14:57:19;99460.00;;;14.85;76.70
38716;BME280;24833;49.324;8.694;2023-02-23T14:59:59;99456.09;;;14.81;76.92
38716;BME280;24833;49.324;8.694;2023-02-23T15:02:29;99450.59;;;14.76;76.18
38716;BME280;24833;49.324;8.694;2023-02-23T15:04:56;99446.50;;;14.74;76.08
38716;BME280;24833;49.324;8.694;2023-02-23T15:07:40;99448.63;;;14.71;76.62